createdAt,value
2022-11-06T00:05:48.873Z,20.02
2022-11-06T00:13:16.191Z,20
2022-11-06T00:20:46.971Z,20.01
2022-11-06T00:28:24.117Z,19.98
2022-11-06T00:36:03.116Z,19.98
2022-11-06T00:43:52.572Z,19.96
2022-11-06T00:51:28.398Z,19.93
2022-11-06T00:59:12.896Z,19.95
2022-11-06T01:06:56.314Z,19.94
2022-11-06T01:14:32.502Z,19.93
2022-11-06T01:22:13.011Z,19.95
2022-11-06T01:29:48.508Z,19.94
2022-11-06T01:37:26.097Z,19.95
2022-11-06T01:45:13.879Z,19.92
2022-11-06T01:53:09.525Z,19.92
2022-11-06T02:01:06.694Z,19.94
2022-11-06T02:08:51.208Z,19.95
2022-11-06T02:16:52.516Z,19.9
2022-11-06T02:25:04.443Z,19.91
2022-11-06T02:33:16.680Z,19.89
2022-11-06T02:41:18.631Z,19.93
2022-11-06T02:49:22.695Z,20
2022-11-06T02:57:32.282Z,20.06
2022-11-06T03:05:33.068Z,20.13
2022-11-06T03:13:48.562Z,19.97
2022-11-06T03:22:03.280Z,19.95
2022-11-06T03:30:28.819Z,19.93
2022-11-06T03:38:43.098Z,19.89
2022-11-06T03:47:03.325Z,19.86
2022-11-06T03:55:17.964Z,19.88
2022-11-06T04:03:21.667Z,19.83
2022-11-06T04:11:24.503Z,19.82
2022-11-06T04:19:25.585Z,19.82
2022-11-06T04:27:49.691Z,19.79
2022-11-06T04:35:51.686Z,19.82
2022-11-06T04:44:31.288Z,19.76
2022-11-06T04:52:29.981Z,19.77
2022-11-06T05:00:24.732Z,19.76
2022-11-06T05:08:08.618Z,19.76
2022-11-06T05:15:59.045Z,20.26
2022-11-06T05:23:25.909Z,20.87
2022-11-06T05:30:10.247Z,21.52
2022-11-06T05:36:47.334Z,21.76
2022-11-06T05:43:21.197Z,21.88
2022-11-06T05:49:47.237Z,21.93
2022-11-06T05:56:12.312Z,21.95
2022-11-06T06:02:42.525Z,21.98
2022-11-06T06:09:08.521Z,21.91
2022-11-06T06:16:19.488Z,21.6
2022-11-06T06:23:57.944Z,21.39
2022-11-06T06:31:31.602Z,21.25
2022-11-06T06:39:02.050Z,21.01
2022-11-06T06:46:45.427Z,20.89
2022-11-06T06:54:27.313Z,20.8
2022-11-06T07:02:12.895Z,20.71
2022-11-06T07:09:44.513Z,20.66
2022-11-06T07:17:28.883Z,20.59
2022-11-06T07:25:01.299Z,20.58
2022-11-06T07:32:46.191Z,20.56
2022-11-06T07:40:24.608Z,20.59
2022-11-06T07:47:59.576Z,20.52
2022-11-06T07:55:42.111Z,20.48
2022-11-06T08:03:15.239Z,20.49
2022-11-06T08:11:02.053Z,20.37
2022-11-06T08:18:37.958Z,20.54
2022-11-06T08:26:23.533Z,20.82
2022-11-06T08:33:52.275Z,20.92
2022-11-06T08:40:55.271Z,21.05
2022-11-06T08:47:45.216Z,21.15
2022-11-06T08:54:39.257Z,21.05
2022-11-06T09:01:52.346Z,20.96
2022-11-06T09:09:39.310Z,20.82
2022-11-06T09:17:06.224Z,20.77
2022-11-06T09:25:02.947Z,20.73
2022-11-06T09:32:54.776Z,20.73
2022-11-06T09:40:26.021Z,20.68
2022-11-06T09:48:16.828Z,20.69
2022-11-06T09:56:31.229Z,20.69
2022-11-06T10:04:35.237Z,20.64
2022-11-06T10:12:24.351Z,20.59
2022-11-06T10:20:47.975Z,20.53
2022-11-06T10:29:19.409Z,20.52
2022-11-06T10:37:31.252Z,20.49
2022-11-06T10:45:31.353Z,20.48
2022-11-06T10:53:47.283Z,20.43
2022-11-06T11:02:03.734Z,20.42
2022-11-06T11:10:00.724Z,20.44
2022-11-06T11:17:53.178Z,20.5
2022-11-06T11:26:01.390Z,20.51
2022-11-06T11:34:01.212Z,20.57
2022-11-06T11:41:29.603Z,20.6
2022-11-06T11:49:06.405Z,20.63
2022-11-06T11:57:03.385Z,20.73
2022-11-06T12:04:08.481Z,20.86
2022-11-06T12:11:50.748Z,20.73
2022-11-06T12:19:48.503Z,20.59
2022-11-06T12:27:58.512Z,20.57
2022-11-06T12:35:53.253Z,20.57
2022-11-06T12:44:07.467Z,20.54
2022-11-06T12:52:16.680Z,20.57
2022-11-06T13:00:28.691Z,20.53
2022-11-06T13:08:49.246Z,20.58
2022-11-06T13:17:04.638Z,20.61
2022-11-06T13:25:10.271Z,20.77
2022-11-06T13:33:15.899Z,20.58
2022-11-06T13:41:26.907Z,20.52
2022-11-06T13:49:24.969Z,20.55
2022-11-06T13:57:31.984Z,20.49
2022-11-06T14:05:51.291Z,20.49
2022-11-06T14:13:44.697Z,20.53
2022-11-06T14:21:53.976Z,20.45
2022-11-06T14:29:39.562Z,20.42
2022-11-06T14:37:32.500Z,20.4
2022-11-06T14:45:37.294Z,20.37
2022-11-06T14:53:41.262Z,20.34
2022-11-06T15:01:51.565Z,20.36
2022-11-06T15:10:03.491Z,20.31
2022-11-06T15:17:46.176Z,20.25
2022-11-06T15:25:49.791Z,20.22
2022-11-06T15:34:08.804Z,20.15
2022-11-06T15:42:09.793Z,20.2
2022-11-06T15:50:14.296Z,20.18
2022-11-06T15:58:12.917Z,20.12
2022-11-06T16:06:09.936Z,20.12
2022-11-06T16:13:51.692Z,20.17
2022-11-06T16:21:57.237Z,20.15
2022-11-06T16:29:54.088Z,20.18
2022-11-06T16:37:52.773Z,20.12
2022-11-06T16:45:43.426Z,20.05
2022-11-06T16:53:48.850Z,20
2022-11-06T17:01:47.608Z,20
2022-11-06T17:09:54.140Z,20.08
2022-11-06T17:17:45.065Z,20.02
2022-11-06T17:25:35.638Z,20.02
2022-11-06T17:33:19.441Z,20
2022-11-06T17:41:04.812Z,19.98
2022-11-06T17:48:30.307Z,19.95
2022-11-06T17:56:10.246Z,19.95
2022-11-06T18:03:46.273Z,19.94
2022-11-06T18:11:29.051Z,19.92
2022-11-06T18:19:13.961Z,19.91
2022-11-06T18:27:02.497Z,19.9
2022-11-06T18:34:36.465Z,19.92
2022-11-06T18:42:13.943Z,19.88
2022-11-06T18:49:51.073Z,19.89
2022-11-06T18:57:24.661Z,19.87
2022-11-06T19:05:16.779Z,19.86
2022-11-06T19:13:08.827Z,19.86
2022-11-06T19:20:46.067Z,19.86
2022-11-06T19:28:33.506Z,19.84
2022-11-06T19:36:26.065Z,19.83
2022-11-06T19:44:09.463Z,19.83
2022-11-06T19:52:40.861Z,19.84
2022-11-06T20:00:11.364Z,19.79
2022-11-06T20:07:57.179Z,19.81
2022-11-06T20:15:35.700Z,19.85
2022-11-06T20:23:16.077Z,19.79
2022-11-06T20:30:54.535Z,19.79
2022-11-06T20:38:36.880Z,19.76
2022-11-06T20:46:09.085Z,19.85
2022-11-06T20:53:50.024Z,19.96
2022-11-06T21:01:41.128Z,19.86
2022-11-06T21:09:28.911Z,19.82
2022-11-06T21:17:09.497Z,19.82
2022-11-06T21:24:56.647Z,19.78
2022-11-06T21:32:29.740Z,19.76
2022-11-06T21:40:10.390Z,19.76
2022-11-06T21:48:14.658Z,19.73
2022-11-06T21:55:54.444Z,19.77
2022-11-06T22:03:44.116Z,19.74
2022-11-06T22:11:31.883Z,19.78
2022-11-06T22:19:13.381Z,19.75
2022-11-06T22:27:02.034Z,19.75
2022-11-06T22:34:47.780Z,19.72
2022-11-06T22:42:37.090Z,19.76
2022-11-06T22:50:20.839Z,19.73
2022-11-06T22:58:06.134Z,19.71
2022-11-06T23:05:52.524Z,19.73
2022-11-06T23:13:36.745Z,19.72
2022-11-06T23:21:23.158Z,19.7
2022-11-06T23:29:07.576Z,19.72
2022-11-06T23:36:48.938Z,19.7
2022-11-06T23:44:34.492Z,19.71
2022-11-06T23:52:24.270Z,19.7
2022-11-06T23:59:55.661Z,19.7
